Terminal Aerodrome Forecast
Issued by NWS North Platte, NE

Home | Current Version | Previous Version | Text Only | Print | Product List | Glossary On
Versions: 1 2 3 4 5 6 7 8 9 10 11 12 13 14
000
FTUS43 KLBF 090520
TAFLBF
TAF
KLBF 090520Z 0906/1006 13005KT P6SM BKN110
     FM091700 17010KT P6SM BKN070
     FM092300 11003KT P6SM BKN110=

USA.gov is the U.S. government's official web portal to all federal, state and local government web resources and services.